Time;durP1;ratioP1;P1;durP2;ratioP2;P2;SDS_P1;SDS_P2;PMS_P1;PMS_P2;Temp;Humidity;BMP_temperature;BMP_pressure;BME280_temperature;BME280_humidity;BME280_pressure;Samples;Min_cycle;Max_cycle;Signal;HPM_P1;HPM_P2
2022/01/29 00:00:47;;;;;;;18.70;11.53;;;7.90;99.90;;;;;;5088232;28;20513;-40
2022/01/29 00:03:13;;;;;;;18.30;11.27;;;7.80;99.90;;;;;;5090929;28;20309;-41
2022/01/29 00:05:38;;;;;;;15.30;11.23;;;8.10;99.90;;;;;;5089665;28;20193;-40
2022/01/29 00:08:05;;;;;;;16.67;11.77;;;7.80;99.90;;;;;;5081799;28;20189;-40
2022/01/29 00:10:34;;;;;;;17.40;12.23;;;7.70;99.90;;;;;;5085754;28;20192;-41
2022/01/29 00:12:59;;;;;;;18.30;11.37;;;7.80;99.90;;;;;;5083791;28;20448;-40
2022/01/29 00:15:25;;;;;;;20.40;12.03;;;7.50;99.90;;;;;;5088993;28;20437;-40
2022/01/29 00:17:51;;;;;;;15.97;11.67;;;7.50;99.90;;;;;;5089821;28;20207;-41
2022/01/29 00:20:17;;;;;;;20.63;12.70;;;7.80;99.90;;;;;;5088441;28;20434;-40
2022/01/29 00:22:42;;;;;;;17.03;11.33;;;7.30;99.90;;;;;;5089952;28;20503;-40
2022/01/29 00:25:09;;;;;;;22.17;13.30;;;7.50;99.90;;;;;;5090306;28;20192;-40
2022/01/29 00:27:36;;;;;;;20.23;13.80;;;7.10;99.90;;;;;;5080446;28;20193;-40
2022/01/29 00:30:08;;;;;;;18.30;12.83;;;7.20;99.90;;;;;;5089856;28;20430;-40
2022/01/29 00:32:34;;;;;;;23.23;14.93;;;7.30;99.90;;;;;;5090448;28;20423;-41
2022/01/29 00:35:00;;;;;;;24.07;13.30;;;7.40;99.90;;;;;;5090401;28;20433;-40
2022/01/29 00:37:26;;;;;;;20.67;14.40;;;7.30;99.90;;;;;;5089909;28;20264;-41
2022/01/29 00:39:51;;;;;;;22.93;15.37;;;7.10;99.90;;;;;;5089690;28;20442;-40
2022/01/29 00:42:17;;;;;;;24.37;14.63;;;7.10;99.90;;;;;;5080227;28;20185;-40
2022/01/29 00:44:44;;;;;;;22.93;14.60;;;7.10;99.90;;;;;;5086874;28;20220;-40
2022/01/29 00:47:10;;;;;;;23.10;14.80;;;7.20;99.90;;;;;;5090305;28;20707;-42
2022/01/29 00:49:35;;;;;;;20.50;15.13;;;7.10;99.90;;;;;;5089340;28;20458;-40
2022/01/29 00:52:01;;;;;;;24.33;14.00;;;7.10;99.90;;;;;;5089599;28;20188;-40
2022/01/29 00:54:27;;;;;;;26.40;15.47;;;7.30;99.90;;;;;;5088944;28;20688;-40
2022/01/29 00:56:52;;;;;;;29.90;16.17;;;7.20;99.90;;;;;;5083562;28;20201;-40
2022/01/29 00:59:18;;;;;;;25.90;15.80;;;7.10;99.90;;;;;;5079437;28;20199;-40
2022/01/29 01:01:44;;;;;;;24.10;17.03;;;7.00;99.90;;;;;;5087617;28;20185;-41
2022/01/29 01:04:09;;;;;;;25.90;15.43;;;7.00;99.90;;;;;;5089659;28;20712;-40
2022/01/29 01:06:35;;;;;;;24.23;16.07;;;6.80;99.90;;;;;;5089547;28;20223;-41
2022/01/29 01:09:01;;;;;;;24.53;16.03;;;7.00;99.90;;;;;;5076125;28;20642;-41
2022/01/29 01:11:26;;;;;;;28.27;15.03;;;7.00;99.90;;;;;;5088454;28;20553;-42
2022/01/29 01:13:52;;;;;;;25.33;16.53;;;6.90;99.90;;;;;;5076606;28;20193;-40
2022/01/29 01:16:18;;;;;;;30.57;17.87;;;7.10;99.90;;;;;;5089663;28;20574;-40
2022/01/29 01:18:44;;;;;;;23.20;15.47;;;6.90;99.90;;;;;;5089380;28;20566;-40
2022/01/29 01:21:09;;;;;;;25.73;17.10;;;7.00;99.90;;;;;;5088448;28;20419;-42
2022/01/29 01:23:35;;;;;;;26.47;15.77;;;7.10;99.90;;;;;;5089261;28;20219;-40
2022/01/29 01:26:02;;;;;;;25.63;16.13;;;6.90;99.90;;;;;;5089362;28;20197;-41
2022/01/29 01:28:28;;;;;;;27.97;16.67;;;7.10;99.90;;;;;;5076937;28;20655;-40
2022/01/29 01:30:54;;;;;;;24.60;17.00;;;6.90;99.90;;;;;;5088260;28;20957;-40
2022/01/29 01:33:19;;;;;;;28.17;17.27;;;6.80;99.90;;;;;;5087850;28;20461;-41
2022/01/29 01:35:52;;;;;;;29.63;16.87;;;6.90;99.90;;;;;;5089172;28;20188;-41
2022/01/29 01:38:23;;;;;;;27.97;18.20;;;6.80;99.90;;;;;;5089101;28;20552;-40
2022/01/29 01:40:56;;;;;;;26.70;17.13;;;6.90;99.90;;;;;;5088606;28;20830;-41
2022/01/29 01:43:22;;;;;;;26.47;17.07;;;7.10;99.90;;;;;;5079853;28;20975;-41
2022/01/29 01:45:48;;;;;;;27.90;18.47;;;7.00;99.90;;;;;;5088981;28;20467;-41
2022/01/29 01:48:14;;;;;;;26.60;17.13;;;6.80;99.90;;;;;;5088426;28;20476;-41
2022/01/29 01:50:41;;;;;;;27.80;18.70;;;6.90;99.90;;;;;;5088325;28;20418;-41
2022/01/29 01:53:07;;;;;;;31.77;18.50;;;7.00;99.90;;;;;;5088944;28;20219;-42
2022/01/29 01:55:33;;;;;;;27.90;17.83;;;7.00;99.90;;;;;;5088875;28;20836;-40
2022/01/29 01:58:00;;;;;;;25.87;16.47;;;7.10;99.90;;;;;;5079965;28;20495;-40
2022/01/29 02:00:27;;;;;;;30.37;19.20;;;7.00;99.90;;;;;;5085572;28;20260;-42
2022/01/29 02:02:53;;;;;;;26.73;17.87;;;6.90;99.90;;;;;;5087954;28;20906;-41
2022/01/29 02:05:21;;;;;;;29.77;18.50;;;6.80;99.90;;;;;;5087574;28;20757;-41
2022/01/29 02:07:47;;;;;;;32.27;19.03;;;6.80;99.90;;;;;;5081895;28;20431;-41
2022/01/29 02:10:13;;;;;;;29.40;19.33;;;6.70;99.90;;;;;;5080594;28;20410;-41
2022/01/29 02:12:56;;;;;;;28.80;18.40;;;7.20;99.90;;;;;;5081120;28;20430;-41
2022/01/29 02:15:22;;;;;;;28.50;16.83;;;6.70;99.90;;;;;;5084912;28;20551;-40
2022/01/29 02:17:48;;;;;;;31.43;19.63;;;6.90;99.90;;;;;;5088333;28;20829;-41
2022/01/29 02:20:16;;;;;;;30.70;18.33;;;7.10;99.90;;;;;;5087542;28;20411;-40
2022/01/29 02:22:44;;;;;;;39.57;20.57;;;6.90;99.90;;;;;;5088456;28;20426;-40
2022/01/29 02:25:28;;;;;;;27.13;17.10;;;6.80;99.90;;;;;;5088437;28;20525;-40
2022/01/29 02:27:55;;;;;;;26.73;17.87;;;6.80;99.90;;;;;;5081381;28;20458;-40
2022/01/29 02:30:21;;;;;;;28.10;17.50;;;6.80;99.90;;;;;;5085539;28;20414;-41
2022/01/29 02:32:47;;;;;;;26.97;16.60;;;7.10;99.90;;;;;;5088316;28;20418;-40
2022/01/29 02:35:12;;;;;;;33.00;19.03;;;6.90;99.90;;;;;;5087816;28;20486;-40
2022/01/29 02:37:39;;;;;;;27.57;16.90;;;7.10;99.90;;;;;;5088007;28;20845;-40
2022/01/29 02:40:05;;;;;;;27.63;17.13;;;6.90;99.90;;;;;;5087048;28;20188;-42
2022/01/29 02:42:31;;;;;;;28.87;18.77;;;6.80;99.90;;;;;;5082847;28;20503;-40
2022/01/29 02:44:57;;;;;;;28.03;17.67;;;6.80;99.90;;;;;;5084180;28;20604;-40
2022/01/29 02:47:30;;;;;;;32.43;17.60;;;6.70;99.90;;;;;;5087900;28;20254;-40
2022/01/29 02:49:55;;;;;;;29.60;18.67;;;6.90;99.90;;;;;;5087158;28;20195;-40
2022/01/29 02:52:21;;;;;;;24.40;17.10;;;6.80;99.90;;;;;;5087661;28;20924;-40
2022/01/29 02:54:47;;;;;;;28.47;18.33;;;6.90;99.90;;;;;;5087515;28;20273;-41
2022/01/29 02:57:12;;;;;;;32.80;18.60;;;6.60;99.90;;;;;;5085255;28;20208;-41
2022/01/29 02:59:38;;;;;;;26.90;18.30;;;6.80;99.90;;;;;;5078376;28;20196;-40
2022/01/29 03:02:04;;;;;;;32.23;19.33;;;7.10;99.90;;;;;;5087258;28;20196;-40
2022/01/29 03:04:29;;;;;;;28.80;18.70;;;6.80;99.90;;;;;;5087631;28;20307;-41
2022/01/29 03:06:55;;;;;;;28.17;17.57;;;6.80;99.90;;;;;;5086227;28;20708;-42
2022/01/29 03:09:21;;;;;;;28.10;17.63;;;6.70;99.90;;;;;;5087395;28;20709;-40
2022/01/29 03:11:46;;;;;;;31.40;18.53;;;6.30;99.90;;;;;;5087058;28;20195;-40
2022/01/29 03:14:12;;;;;;;28.80;18.47;;;6.60;99.90;;;;;;5076411;28;20638;-40
2022/01/29 03:16:37;;;;;;;30.60;18.17;;;6.70;99.90;;;;;;5086926;28;20698;-40
2022/01/29 03:19:03;;;;;;;29.73;18.80;;;6.80;99.90;;;;;;5087580;28;20288;-40
2022/01/29 03:21:29;;;;;;;29.10;18.50;;;6.70;99.90;;;;;;5087041;28;20694;-40
2022/01/29 03:23:54;;;;;;;30.80;17.80;;;7.00;99.90;;;;;;5087251;28;20210;-40
2022/01/29 03:26:20;;;;;;;34.47;17.97;;;6.60;99.90;;;;;;5086457;28;20356;-40
2022/01/29 03:28:46;;;;;;;28.50;18.10;;;6.70;99.90;;;;;;5076864;28;20180;-42
2022/01/29 03:31:11;;;;;;;32.30;18.57;;;6.80;99.90;;;;;;5081134;28;20555;-44
2022/01/29 03:33:37;;;;;;;31.90;20.17;;;6.40;99.90;;;;;;5086967;28;20245;-41
2022/01/29 03:36:03;;;;;;;31.13;18.27;;;6.60;99.90;;;;;;5087487;28;20275;-43
2022/01/29 03:38:29;;;;;;;26.20;16.67;;;6.80;99.90;;;;;;5086004;28;20184;-40
2022/01/29 03:40:57;;;;;;;24.77;17.53;;;6.70;99.90;;;;;;5086489;28;20472;-40
2022/01/29 03:43:30;;;;;;;30.83;18.27;;;6.60;99.90;;;;;;5079045;28;20201;-40
2022/01/29 03:45:56;;;;;;;33.37;18.40;;;6.70;99.90;;;;;;5080811;28;20507;-40
2022/01/29 03:48:22;;;;;;;33.27;19.60;;;6.50;99.90;;;;;;5087035;28;20421;-40
2022/01/29 03:50:48;;;;;;;31.03;18.70;;;6.60;99.90;;;;;;5086443;28;20427;-40
2022/01/29 03:53:13;;;;;;;29.90;19.17;;;6.50;99.90;;;;;;5086911;28;20438;-41
2022/01/29 03:55:39;;;;;;;30.73;19.57;;;6.70;99.90;;;;;;5087359;28;20550;-40
2022/01/29 03:58:05;;;;;;;27.37;18.70;;;6.50;99.90;;;;;;5080879;28;20281;-40
2022/01/29 04:00:30;;;;;;;27.47;16.77;;;6.70;99.90;;;;;;5081434;28;20200;-40
2022/01/29 04:02:56;;;;;;;26.27;17.67;;;6.70;99.90;;;;;;5087189;28;20252;-40
2022/01/29 04:05:22;;;;;;;26.77;17.90;;;6.90;99.90;;;;;;5087475;28;20191;-40
2022/01/29 04:07:47;;;;;;;29.07;18.37;;;6.60;99.90;;;;;;5086925;28;20283;-40
2022/01/29 04:10:13;;;;;;;30.10;18.53;;;6.60;99.90;;;;;;5086354;28;20176;-40
2022/01/29 04:12:45;;;;;;;28.63;18.17;;;6.50;99.90;;;;;;5086579;28;20208;-40
2022/01/29 04:15:10;;;;;;;25.80;16.60;;;6.80;99.90;;;;;;5077760;28;20185;-40
2022/01/29 04:17:36;;;;;;;24.40;15.30;;;6.50;99.90;;;;;;5084202;28;20479;-40
2022/01/29 04:20:04;;;;;;;29.43;17.00;;;6.80;99.90;;;;;;5080140;28;20184;-41
2022/01/29 04:22:29;;;;;;;26.13;16.93;;;6.60;99.90;;;;;;5086268;28;20188;-41
2022/01/29 04:24:55;;;;;;;24.40;15.37;;;6.70;99.90;;;;;;5086937;28;20465;-40
2022/01/29 04:27:30;;;;;;;23.83;16.37;;;6.70;99.90;;;;;;5086510;28;20188;-41
2022/01/29 04:29:59;;;;;;;23.60;14.77;;;6.70;99.90;;;;;;5082586;28;20176;-41
2022/01/29 04:32:56;;;;;;;29.17;15.60;;;6.70;99.90;;;;;;5089609;28;20426;-40
2022/01/29 04:35:14;;;;;;;22.20;14.57;;;6.70;99.90;;;;;;5089448;28;20943;-40
2022/01/29 04:37:39;;;;;;;25.03;14.90;;;6.60;99.90;;;;;;5089741;28;20414;-40
2022/01/29 04:40:06;;;;;;;20.40;14.47;;;6.50;99.90;;;;;;5089282;28;20260;-40
2022/01/29 04:42:31;;;;;;;23.10;14.73;;;6.40;99.90;;;;;;5088670;28;20212;-40
2022/01/29 04:44:57;;;;;;;23.43;14.63;;;6.40;99.90;;;;;;5076072;28;20501;-40
2022/01/29 04:47:23;;;;;;;18.90;12.87;;;6.20;99.90;;;;;;5089716;28;20267;-40
2022/01/29 04:49:48;;;;;;;19.30;13.30;;;6.50;99.90;;;;;;5089463;28;20184;-40
2022/01/29 04:52:14;;;;;;;27.37;16.00;;;6.60;99.90;;;;;;5090272;28;20188;-40
2022/01/29 04:54:39;;;;;;;19.03;12.30;;;6.50;99.90;;;;;;5089819;28;20234;-43
2022/01/29 04:57:05;;;;;;;17.63;12.27;;;6.60;99.90;;;;;;5088688;28;20216;-40
2022/01/29 04:59:31;;;;;;;17.67;11.80;;;6.50;99.90;;;;;;5080395;28;20193;-40
2022/01/29 05:01:56;;;;;;;15.20;10.97;;;6.60;99.90;;;;;;5088711;28;20192;-40
2022/01/29 05:04:22;;;;;;;20.17;11.50;;;6.60;99.90;;;;;;5089494;28;20330;-40
2022/01/29 05:06:48;;;;;;;18.47;12.00;;;6.70;99.90;;;;;;5090046;28;20681;-40
2022/01/29 05:09:14;;;;;;;16.50;11.77;;;6.70;99.90;;;;;;5089766;28;20211;-40
2022/01/29 05:11:42;;;;;;;16.60;11.40;;;6.70;99.90;;;;;;5089201;28;20559;-41
2022/01/29 05:14:16;;;;;;;18.00;11.40;;;6.50;99.90;;;;;;5080208;28;20782;-40
2022/01/29 05:27:39;;;;;;;13.50;9.53;;;6.60;99.90;;;;;;5089408;28;20422;-40
2022/01/29 05:30:05;;;;;;;12.97;9.60;;;6.70;99.90;;;;;;5079022;28;20769;-40
2022/01/29 05:32:30;;;;;;;15.27;9.73;;;6.70;99.90;;;;;;5088990;28;20185;-40
2022/01/29 05:34:56;;;;;;;13.70;10.70;;;6.70;99.90;;;;;;5089110;28;20513;-40
2022/01/29 05:37:22;;;;;;;14.33;10.13;;;6.60;99.90;;;;;;5088832;28;20192;-40
2022/01/29 05:39:47;;;;;;;17.57;11.20;;;6.80;99.90;;;;;;5088438;28;20192;-42
2022/01/29 05:42:13;;;;;;;17.60;10.93;;;6.60;99.90;;;;;;5088859;28;20192;-41
2022/01/29 05:44:39;;;;;;;14.40;10.40;;;6.70;99.90;;;;;;5076866;28;20220;-40
2022/01/29 05:47:04;;;;;;;15.63;9.50;;;6.70;99.90;;;;;;5083451;28;20187;-40
2022/01/29 05:49:30;;;;;;;18.33;11.17;;;6.80;99.90;;;;;;5088674;28;20184;-40
2022/01/29 05:51:56;;;;;;;16.47;10.20;;;6.80;99.90;;;;;;5087942;28;20188;-41
2022/01/29 05:54:22;;;;;;;15.30;11.03;;;6.90;99.90;;;;;;5088955;28;20211;-41
2022/01/29 05:56:47;;;;;;;17.03;11.63;;;6.80;99.90;;;;;;5087490;28;20978;-40
2022/01/29 05:59:13;;;;;;;15.80;10.97;;;6.70;99.90;;;;;;5081533;28;20189;-40
2022/01/29 06:01:38;;;;;;;17.67;12.43;;;6.70;99.90;;;;;;5080730;28;20189;-41
2022/01/29 06:04:06;;;;;;;17.87;10.83;;;6.60;99.90;;;;;;5087899;28;20269;-41
2022/01/29 06:06:32;;;;;;;14.73;10.73;;;6.90;99.90;;;;;;5088563;28;20618;-40
2022/01/29 06:09:01;;;;;;;15.17;11.17;;;6.80;99.90;;;;;;5074820;28;20815;-40
2022/01/29 06:11:27;;;;;;;16.73;11.13;;;6.90;99.90;;;;;;5088100;28;20822;-40
2022/01/29 06:13:53;;;;;;;14.73;11.27;;;6.70;99.90;;;;;;5084780;28;20430;-40
2022/01/29 06:16:18;;;;;;;14.63;10.60;;;6.90;99.90;;;;;;5080281;28;20422;-43
2022/01/29 06:18:44;;;;;;;17.03;12.13;;;6.80;99.90;;;;;;5088094;28;20219;-40
2022/01/29 06:21:13;;;;;;;18.57;12.77;;;6.90;99.90;;;;;;5087493;28;20196;-41
2022/01/29 06:23:39;;;;;;;18.07;12.40;;;6.80;99.90;;;;;;5088195;28;20239;-41
2022/01/29 06:26:07;;;;;;;17.13;12.47;;;6.90;99.90;;;;;;5088321;28;20423;-40
2022/01/29 06:28:33;;;;;;;20.00;14.03;;;7.00;99.90;;;;;;5088501;28;20747;-40
2022/01/29 06:30:59;;;;;;;18.27;13.33;;;7.10;99.90;;;;;;5080019;28;20492;-41
2022/01/29 06:33:25;;;;;;;18.00;12.50;;;6.90;99.90;;;;;;5087923;28;20928;-40
2022/01/29 06:35:51;;;;;;;19.47;13.47;;;6.90;99.90;;;;;;5087797;28;20462;-40
2022/01/29 06:38:17;;;;;;;18.47;12.07;;;6.80;99.90;;;;;;5087546;28;20865;-40
2022/01/29 06:40:43;;;;;;;20.57;14.30;;;6.80;99.90;;;;;;5087546;28;20190;-41
2022/01/29 06:43:09;;;;;;;19.70;12.87;;;6.70;99.90;;;;;;5087805;28;20176;-40
2022/01/29 06:45:37;;;;;;;21.83;13.57;;;6.80;99.90;;;;;;5076810;28;20493;-40
2022/01/29 06:48:03;;;;;;;24.67;13.50;;;6.90;99.90;;;;;;5087982;28;20418;-40
2022/01/29 06:50:30;;;;;;;19.33;12.60;;;7.00;99.90;;;;;;5087146;28;20830;-40
2022/01/29 06:52:55;;;;;;;20.77;13.83;;;6.90;99.90;;;;;;5087217;28;20418;-40
2022/01/29 06:55:21;;;;;;;21.10;14.93;;;6.80;99.90;;;;;;5087599;28;20815;-40
2022/01/29 06:57:47;;;;;;;19.40;13.20;;;6.90;99.90;;;;;;5086256;28;20200;-41
2022/01/29 07:00:13;;;;;;;19.70;13.33;;;6.90;99.90;;;;;;5075589;28;20463;-40
2022/01/29 07:02:39;;;;;;;24.13;14.27;;;6.80;99.90;;;;;;5087203;28;20513;-40
2022/01/29 07:05:06;;;;;;;18.97;14.73;;;6.90;99.90;;;;;;5087482;28;20904;-40
2022/01/29 07:07:32;;;;;;;22.80;14.67;;;6.90;99.90;;;;;;5087336;28;20192;-41
2022/01/29 07:09:58;;;;;;;18.70;12.87;;;7.00;99.90;;;;;;5087112;28;20828;-40
2022/01/29 07:12:25;;;;;;;21.50;14.47;;;7.00;99.90;;;;;;5087751;28;20427;-43
2022/01/29 07:14:51;;;;;;;20.93;15.30;;;6.70;99.90;;;;;;5079946;28;20450;-40
2022/01/29 07:17:18;;;;;;;22.33;14.47;;;7.00;99.90;;;;;;5085220;28;20908;-40
2022/01/29 07:19:45;;;;;;;21.30;14.93;;;6.80;99.90;;;;;;5086924;28;20445;-40
2022/01/29 07:22:11;;;;;;;24.90;16.43;;;7.00;99.90;;;;;;5087274;28;20434;-40
2022/01/29 07:24:38;;;;;;;23.00;15.67;;;6.90;99.90;;;;;;5087459;28;20477;-42
2022/01/29 07:27:04;;;;;;;23.00;14.50;;;6.80;99.90;;;;;;5087301;28;20422;-40
2022/01/29 07:29:30;;;;;;;24.83;15.57;;;6.90;99.90;;;;;;5082861;28;20454;-41
2022/01/29 07:31:56;;;;;;;23.47;15.00;;;6.80;99.90;;;;;;5079616;28;20801;-40
2022/01/29 07:34:23;;;;;;;21.50;15.30;;;6.90;99.90;;;;;;5086336;28;20617;-41
2022/01/29 07:36:50;;;;;;;22.87;16.03;;;7.00;99.90;;;;;;5086496;28;20503;-41
2022/01/29 07:39:16;;;;;;;25.23;15.83;;;6.90;99.90;;;;;;5086266;28;20414;-40
2022/01/29 07:41:41;;;;;;;23.77;15.10;;;6.80;99.90;;;;;;5086558;28;20478;-41
2022/01/29 07:44:07;;;;;;;23.90;16.63;;;6.90;99.90;;;;;;5083891;28;20207;-41
2022/01/29 07:46:33;;;;;;;25.07;16.10;;;6.90;99.90;;;;;;5079166;28;20177;-40
2022/01/29 07:48:59;;;;;;;24.30;15.70;;;6.90;99.90;;;;;;5086881;28;20183;-40
2022/01/29 07:51:25;;;;;;;33.73;18.70;;;7.20;99.90;;;;;;5086577;28;20419;-41
2022/01/29 07:53:51;;;;;;;24.63;16.07;;;7.00;99.90;;;;;;5086997;28;20475;-40
2022/01/29 07:56:16;;;;;;;26.83;16.53;;;7.10;99.90;;;;;;5086827;28;20204;-40
2022/01/29 07:58:42;;;;;;;26.50;18.30;;;7.20;99.90;;;;;;5085545;28;20195;-40
2022/01/29 08:01:08;;;;;;;24.17;16.73;;;7.20;99.90;;;;;;5077294;28;20187;-40
2022/01/29 08:03:33;;;;;;;24.57;16.40;;;7.30;99.90;;;;;;5088743;28;20285;-41
2022/01/29 08:06:00;;;;;;;27.43;18.43;;;7.10;99.90;;;;;;5088784;28;20183;-40
2022/01/29 08:08:25;;;;;;;25.23;17.37;;;7.10;99.90;;;;;;5087550;28;20207;-40
2022/01/29 08:10:52;;;;;;;26.60;17.17;;;7.30;99.90;;;;;;5089576;28;20415;-41
2022/01/29 08:13:18;;;;;;;24.50;16.90;;;7.50;99.90;;;;;;5091148;28;20189;-40
2022/01/29 08:15:44;;;;;;;23.60;17.07;;;7.40;99.90;;;;;;5079656;28;20439;-40
2022/01/29 08:18:10;;;;;;;27.57;17.90;;;7.40;99.90;;;;;;5090011;28;20279;-40
2022/01/29 08:20:35;;;;;;;23.63;17.83;;;7.40;99.90;;;;;;5089744;28;20467;-41
2022/01/29 08:23:11;;;;;;;27.47;17.60;;;7.40;99.90;;;;;;5090525;28;20685;-41
2022/01/29 08:25:37;;;;;;;22.53;16.13;;;7.50;99.90;;;;;;5089158;28;20184;-40
2022/01/29 08:28:04;;;;;;;24.17;16.47;;;7.40;99.90;;;;;;5080752;28;20411;-40
2022/01/29 08:30:30;;;;;;;25.23;16.93;;;7.60;99.90;;;;;;5082172;28;20804;-42
2022/01/29 08:32:56;;;;;;;27.53;17.27;;;7.60;99.90;;;;;;5083793;28;20415;-40
2022/01/29 08:35:21;;;;;;;26.30;17.90;;;7.50;99.90;;;;;;5090142;28;20480;-40
2022/01/29 08:37:47;;;;;;;27.00;18.47;;;7.30;99.90;;;;;;5089570;28;20184;-41
2022/01/29 08:40:13;;;;;;;24.50;17.07;;;7.30;99.90;;;;;;5090880;28;20185;-40
2022/01/29 08:42:40;;;;;;;23.83;17.30;;;7.50;99.90;;;;;;5090202;28;20274;-41
2022/01/29 08:45:07;;;;;;;23.93;16.40;;;7.30;99.90;;;;;;5085529;28;20462;-40
2022/01/29 08:47:33;;;;;;;25.07;17.97;;;7.70;99.90;;;;;;5084893;28;20422;-40
2022/01/29 08:50:00;;;;;;;24.30;16.97;;;7.50;99.90;;;;;;5088910;28;20421;-41
2022/01/29 08:52:27;;;;;;;23.00;17.23;;;7.50;99.90;;;;;;5088660;28;20422;-40
2022/01/29 08:54:53;;;;;;;22.60;17.10;;;7.70;99.90;;;;;;5085030;28;20434;-40
2022/01/29 08:57:18;;;;;;;25.43;17.40;;;7.70;99.90;;;;;;5088196;28;20866;-40
2022/01/29 08:59:44;;;;;;;23.90;17.60;;;7.50;99.90;;;;;;5088179;28;20372;-40
2022/01/29 09:02:10;;;;;;;21.90;15.70;;;7.60;99.90;;;;;;5078864;28;20678;-41
2022/01/29 09:04:36;;;;;;;23.50;15.80;;;7.50;99.90;;;;;;5086702;28;20277;-40
2022/01/29 09:07:02;;;;;;;20.60;14.60;;;7.70;99.90;;;;;;5089188;28;20181;-41
2022/01/29 09:09:27;;;;;;;24.10;15.70;;;7.60;99.90;;;;;;5089089;28;20417;-41
2022/01/29 09:11:54;;;;;;;20.70;16.50;;;7.80;99.90;;;;;;5086705;28;20422;-41
2022/01/29 09:14:20;;;;;;;20.97;15.50;;;8.00;99.90;;;;;;5088175;28;20181;-41
2022/01/29 09:16:46;;;;;;;20.10;15.93;;;7.80;99.90;;;;;;5081435;28;20932;-40
2022/01/29 09:19:13;;;;;;;21.20;15.13;;;7.80;99.90;;;;;;5089126;28;20433;-41
2022/01/29 09:21:39;;;;;;;18.77;14.87;;;7.80;99.90;;;;;;5086638;28;20434;-40
2022/01/29 09:24:04;;;;;;;20.10;14.17;;;7.80;99.90;;;;;;5084097;28;20484;-43
2022/01/29 09:26:30;;;;;;;19.83;15.47;;;7.80;99.90;;;;;;5090374;28;20498;-40
2022/01/29 09:28:56;;;;;;;20.63;15.13;;;7.90;99.90;;;;;;5088492;28;20427;-40
2022/01/29 09:31:22;;;;;;;20.23;15.50;;;7.80;99.90;;;;;;5074572;28;20759;-40
2022/01/29 09:33:48;;;;;;;20.87;15.97;;;7.80;99.90;;;;;;5087543;28;20215;-40
2022/01/29 09:36:14;;;;;;;21.07;15.13;;;7.70;99.90;;;;;;5088485;28;20657;-40
2022/01/29 09:38:40;;;;;;;20.10;14.93;;;7.80;99.90;;;;;;5088473;28;20422;-40
2022/01/29 09:41:07;;;;;;;18.50;14.63;;;7.90;99.90;;;;;;5087455;28;20480;-44
2022/01/29 09:43:35;;;;;;;19.00;14.40;;;7.80;99.90;;;;;;5089425;28;20551;-40
2022/01/29 09:46:01;;;;;;;17.43;13.97;;;7.90;99.90;;;;;;5081576;28;20431;-40
2022/01/29 09:48:29;;;;;;;18.73;14.50;;;7.80;99.90;;;;;;5086898;28;20993;-41
2022/01/29 09:50:57;;;;;;;18.57;13.83;;;8.00;99.90;;;;;;5088089;28;20821;-41
2022/01/29 09:53:22;;;;;;;17.30;13.87;;;8.10;99.90;;;;;;5088993;28;20422;-41
2022/01/29 09:55:48;;;;;;;16.40;13.27;;;7.90;99.90;;;;;;5088246;28;20977;-40
2022/01/29 09:58:14;;;;;;;18.70;13.87;;;8.00;99.90;;;;;;5087998;28;20269;-40
2022/01/29 10:00:40;;;;;;;17.40;13.97;;;8.00;99.90;;;;;;5082225;28;20854;-41
2022/01/29 10:03:14;;;;;;;20.30;13.63;;;7.90;99.90;;;;;;5083645;28;20415;-40
2022/01/29 10:05:50;;;;;;;19.27;14.70;;;8.10;99.90;;;;;;5087116;28;20442;-41
2022/01/29 10:08:16;;;;;;;18.80;14.33;;;8.10;99.90;;;;;;5077871;28;20506;-40
2022/01/29 10:10:50;;;;;;;16.17;13.10;;;8.00;99.90;;;;;;5085261;28;20426;-40
2022/01/29 10:13:33;;;;;;;19.80;13.23;;;8.10;99.90;;;;;;5088531;28;20429;-41
2022/01/29 10:16:26;;;;;;;16.80;14.40;;;8.10;99.90;;;;;;5081403;28;20803;-40
2022/01/29 10:19:08;;;;;;;18.37;14.37;;;8.30;99.90;;;;;;5084112;28;20450;-40
2022/01/29 10:21:44;;;;;;;16.57;13.63;;;8.30;99.90;;;;;;5087639;28;20422;-41
2022/01/29 10:24:13;;;;;;;18.70;15.40;;;8.10;99.90;;;;;;5088283;28;20454;-41
2022/01/29 10:26:48;;;;;;;20.63;13.97;;;8.20;99.90;;;;;;5087180;28;20432;-40
2022/01/29 10:29:26;;;;;;;18.27;13.80;;;8.10;99.90;;;;;;5088338;28;20747;-40
2022/01/29 10:31:54;;;;;;;18.97;13.90;;;8.40;99.90;;;;;;5077918;28;21012;-40
2022/01/29 10:34:27;;;;;;;20.27;14.40;;;8.20;99.90;;;;;;5087982;28;20996;-42
2022/01/29 10:37:14;;;;;;;18.07;14.30;;;8.20;99.90;;;;;;5088126;28;20422;-40
2022/01/29 10:39:45;;;;;;;19.63;14.90;;;8.20;99.90;;;;;;5087404;28;20418;-41
2022/01/29 10:42:14;;;;;;;17.77;14.67;;;8.30;99.90;;;;;;5088031;28;20521;-41
2022/01/29 10:44:48;;;;;;;20.40;14.73;;;8.30;99.90;;;;;;5087739;28;20486;-42
2022/01/29 10:47:14;;;;;;;16.47;13.40;;;8.30;99.90;;;;;;5076720;28;20792;-40
2022/01/29 10:49:59;;;;;;;18.10;13.80;;;8.30;99.90;;;;;;5086704;28;20472;-40
2022/01/29 10:52:31;;;;;;;18.83;13.47;;;8.20;99.90;;;;;;5079488;28;20418;-40
2022/01/29 10:55:05;;;;;;;18.80;13.83;;;8.40;99.90;;;;;;5087705;28;20618;-40
2022/01/29 10:57:42;;;;;;;20.87;13.40;;;8.40;99.90;;;;;;5086985;28;20483;-41
2022/01/29 11:00:20;;;;;;;16.10;12.40;;;8.30;99.90;;;;;;5086817;28;20414;-40
2022/01/29 11:02:46;;;;;;;18.17;13.07;;;8.30;99.90;;;;;;5073741;28;20433;-41
2022/01/29 11:05:14;;;;;;;15.30;12.07;;;8.40;99.90;;;;;;5087420;28;20466;-41
2022/01/29 11:07:41;;;;;;;15.30;12.80;;;8.40;99.90;;;;;;5088117;28;20559;-41
2022/01/29 11:10:08;;;;;;;15.37;11.87;;;8.30;99.90;;;;;;5086884;28;21126;-41
2022/01/29 11:12:38;;;;;;;16.43;12.90;;;8.40;99.90;;;;;;5087508;28;20947;-40
2022/01/29 11:15:05;;;;;;;18.40;12.43;;;8.30;99.90;;;;;;5087228;28;20991;-40
2022/01/29 11:17:31;;;;;;;17.57;11.47;;;8.40;99.90;;;;;;5081232;28;20434;-40
2022/01/29 11:19:58;;;;;;;14.97;12.00;;;8.50;99.90;;;;;;5086738;28;20425;-40
2022/01/29 11:22:35;;;;;;;14.37;12.00;;;8.50;99.90;;;;;;5087805;28;20433;-42
2022/01/29 11:25:06;;;;;;;14.60;10.93;;;8.60;99.90;;;;;;5081658;28;20470;-40
2022/01/29 11:27:34;;;;;;;13.93;11.30;;;8.40;99.90;;;;;;5087441;28;20476;-40
2022/01/29 11:30:04;;;;;;;14.17;10.50;;;8.60;99.90;;;;;;5086925;28;20765;-41
2022/01/29 11:32:40;;;;;;;13.07;9.57;;;8.50;99.90;;;;;;5078362;28;20436;-40
2022/01/29 11:35:07;;;;;;;12.00;9.07;;;8.60;99.90;;;;;;5087385;28;20541;-41
2022/01/29 11:37:37;;;;;;;11.27;9.20;;;8.50;99.90;;;;;;5087968;28;20871;-41
2022/01/29 11:40:16;;;;;;;12.50;10.50;;;8.60;99.90;;;;;;5090667;28;20518;-40
2022/01/29 11:43:00;;;;;;;11.67;8.80;;;8.60;99.90;;;;;;5090006;28;20510;-40
2022/01/29 11:45:48;;;;;;;11.23;9.00;;;8.70;99.90;;;;;;5091574;28;20464;-40
2022/01/29 11:50:54;;;;;;;10.77;8.63;;;8.60;99.90;;;;;;5084007;28;20476;-40
2022/01/29 11:53:21;;;;;;;9.47;8.40;;;8.60;99.90;;;;;;5091262;28;20479;-40
2022/01/29 11:55:50;;;;;;;10.33;7.60;;;8.70;99.90;;;;;;5091001;28;20948;-40
2022/01/29 11:58:30;;;;;;;9.10;7.00;;;8.70;99.90;;;;;;5090161;28;20517;-41
2022/01/29 12:00:57;;;;;;;9.97;7.87;;;8.60;99.90;;;;;;5089543;28;20433;-41
2022/01/29 12:03:40;;;;;;;12.27;7.97;;;8.80;99.90;;;;;;5083277;28;20788;-40
2022/01/29 12:09:04;;;;;;;8.90;7.37;;;8.80;99.90;;;;;;5090805;28;20437;-41
2022/01/29 12:11:32;;;;;;;9.13;8.00;;;8.80;99.90;;;;;;5090650;28;20441;-41
2022/01/29 12:14:13;;;;;;;8.27;6.83;;;8.70;99.90;;;;;;5090852;28;20422;-40
2022/01/29 12:16:50;;;;;;;9.20;7.20;;;8.60;99.90;;;;;;5085646;28;20517;-41
2022/01/29 12:19:42;;;;;;;8.50;6.30;;;8.80;99.90;;;;;;5087853;28;20786;-40
2022/01/29 12:22:31;;;;;;;11.03;6.50;;;8.70;99.90;;;;;;5088240;28;20781;-40
2022/01/29 12:24:59;;;;;;;7.87;6.70;;;8.80;99.90;;;;;;5090418;28;21066;-40
2022/01/29 12:27:43;;;;;;;7.60;6.37;;;8.80;99.90;;;;;;5091000;28;20791;-40
2022/01/29 12:30:10;;;;;;;7.80;6.17;;;8.90;99.90;;;;;;5090079;28;20817;-42
2022/01/29 12:32:36;;;;;;;7.03;6.23;;;8.90;99.90;;;;;;5081110;28;20804;-41
2022/01/29 12:35:05;;;;;;;7.80;5.60;;;9.00;99.90;;;;;;5090213;28;20438;-41
2022/01/29 12:37:31;;;;;;;6.83;6.00;;;9.00;99.90;;;;;;5090358;28;20697;-41
2022/01/29 12:40:20;;;;;;;6.43;5.60;;;9.00;99.90;;;;;;5089382;28;20437;-41
2022/01/29 12:42:56;;;;;;;5.83;5.10;;;9.00;99.90;;;;;;5090300;28;20430;-40
2022/01/29 12:45:24;;;;;;;5.47;4.40;;;9.00;99.90;;;;;;5089996;28;20602;-42
2022/01/29 12:47:49;;;;;;;6.90;5.10;;;9.10;99.90;;;;;;5079327;28;20431;-40
2022/01/29 12:50:20;;;;;;;5.77;5.20;;;9.00;99.90;;;;;;5088179;28;20422;-41
2022/01/29 12:52:46;;;;;;;6.70;5.50;;;9.10;99.90;;;;;;5088166;28;20418;-41
2022/01/29 12:55:13;;;;;;;5.73;5.10;;;9.00;99.90;;;;;;5090027;28;20422;-43
2022/01/29 12:57:44;;;;;;;6.10;4.90;;;9.30;99.90;;;;;;5088733;28;20509;-41